Aviation Digital Data Service (ADDS)

Output produced by METARs form (0935 UTC 01 April 2015)
found at http://www.aviationweather.gov/adds/metars/
 
KGED 010854Z AUTO 35004KT 10SM CLR 02/M02 A2995 RMK AO2 SLP141 T00221017 51015 $